PWSweather.com
Personal Weather Stations
Station Observations
PICKERING
North Yorkshire, PickeringGB

North YorkshirePickeringGB

Lat: 54.2494, Lon: -0.7725

Elevation: 192

Station Type: Oregon Scientific WMR100

High Low Average
Temperature 69.6°F20.9°C 46.4°F8.0°C 58.8°F14.9°C
Dew Point 59.0°F15.0°C 41.0°F5.0°C 48.6°F9.2°C
Winds 8.3 mph 13.4 kmh Calm Calm 3.0 mph SSE4.8 kmh SSE
Wind Gusts 15.2 mph24.5 kmh -- 6.0 mph9.7 kmh
Humidity 83% 55% 69%
Pressure 29.98 in1015.2 mb 29.92 in1013.2 mb -
Precipitation 0.00 in0.0 mm - -
Hour Temp Dew Point Humidity Winds Wind Gusts Pressure Precip Precip Rate Daily Precip Total
12:00 AM 51.4°F10.8°C 44.6°F7.0°C 78% Calm Calm -- 29.92 in1013.2 mb 0.00 in0.0 mm 0.00 in0.0 mm 0.00 in0.0 mm
12:05 AM 51.1°F10.6°C 44.6°F7.0°C 78% Calm Calm -- 29.92 in1013.2 mb 0.00 in0.0 mm 0.00 in0.0 mm 0.00 in0.0 mm
12:10 AM 51.1°F10.6°C 44.6°F7.0°C 78% Calm Calm -- 29.92 in1013.2 mb 0.00 in0.0 mm 0.00 in0.0 mm 0.00 in0.0 mm
12:15 AM 50.7°F10.4°C 44.6°F7.0°C 78% Calm Calm -- 29.92 in1013.2 mb 0.00 in0.0 mm 0.00 in0.0 mm 0.00 in0.0 mm
12:20 AM 50.7°F10.4°C 44.6°F7.0°C 78% Calm Calm -- 29.92 in1013.2 mb 0.00 in0.0 mm 0.00 in0.0 mm 0.00 in0.0 mm
12:25 AM 50.7°F10.4°C 44.6°F7.0°C 78% Calm Calm -- 29.92 in1013.2 mb 0.00 in0.0 mm 0.00 in0.0 mm 0.00 in0.0 mm
12:30 AM 50.5°F10.3°C 44.6°F7.0°C 78% Calm Calm -- 29.92 in1013.2 mb 0.00 in0.0 mm 0.00 in0.0 mm 0.00 in0.0 mm
12:35 AM 50.4°F10.2°C 44.6°F7.0°C 78% Calm Calm -- 29.92 in1013.2 mb 0.00 in0.0 mm 0.00 in0.0 mm 0.00 in0.0 mm
12:40 AM 50.2°F10.1°C 42.8°F6.0°C 78% Calm Calm -- 29.92 in1013.2 mb 0.00 in0.0 mm 0.00 in0.0 mm 0.00 in0.0 mm
12:45 AM 49.8°F9.9°C 42.8°F6.0°C 78% Calm Calm -- 29.92 in1013.2 mb 0.00 in0.0 mm 0.00 in0.0 mm 0.00 in0.0 mm
12:50 AM 49.8°F9.9°C 42.8°F6.0°C 78% Calm Calm -- 29.92 in1013.2 mb 0.00 in0.0 mm 0.00 in0.0 mm 0.00 in0.0 mm
12:55 AM 49.8°F9.9°C 42.8°F6.0°C 78% Calm Calm -- 29.92 in1013.2 mb 0.00 in0.0 mm 0.00 in0.0 mm 0.00 in0.0 mm
01:00 AM 49.6°F9.8°C 42.8°F6.0°C 78% Calm Calm -- 29.92 in1013.2 mb 0.00 in0.0 mm 0.00 in0.0 mm 0.00 in0.0 mm
01:05 AM 49.5°F9.7°C 42.8°F6.0°C 78% Calm Calm -- 29.92 in1013.2 mb 0.00 in0.0 mm 0.00 in0.0 mm 0.00 in0.0 mm
01:10 AM 49.5°F9.7°C 42.8°F6.0°C 78% Calm Calm -- 29.92 in1013.2 mb 0.00 in0.0 mm 0.00 in0.0 mm 0.00 in0.0 mm
01:15 AM 49.1°F9.5°C 42.8°F6.0°C 78% Calm Calm -- 29.92 in1013.2 mb 0.00 in0.0 mm 0.00 in0.0 mm 0.00 in0.0 mm
01:20 AM 49.1°F9.5°C 42.8°F6.0°C 78% Calm Calm -- 29.92 in1013.2 mb 0.00 in0.0 mm 0.00 in0.0 mm 0.00 in0.0 mm
01:25 AM 48.7°F9.3°C 42.8°F6.0°C 78% Calm Calm -- 29.92 in1013.2 mb 0.00 in0.0 mm 0.00 in0.0 mm 0.00 in0.0 mm
01:30 AM 48.7°F9.3°C 42.8°F6.0°C 78% Calm Calm -- 29.92 in1013.2 mb 0.00 in0.0 mm 0.00 in0.0 mm 0.00 in0.0 mm
01:35 AM 48.6°F9.2°C 42.8°F6.0°C 78% Calm Calm -- 29.92 in1013.2 mb 0.00 in0.0 mm 0.00 in0.0 mm 0.00 in0.0 mm
01:40 AM 48.7°F9.3°C 42.8°F6.0°C 78% Calm Calm -- 29.92 in1013.2 mb 0.00 in0.0 mm 0.00 in0.0 mm 0.00 in0.0 mm
01:45 AM 48.6°F9.2°C 42.8°F6.0°C 78% Calm Calm -- 29.92 in1013.2 mb 0.00 in0.0 mm 0.00 in0.0 mm 0.00 in0.0 mm
01:50 AM 48.4°F9.1°C 42.8°F6.0°C 78% Calm Calm -- 29.92 in1013.2 mb 0.00 in0.0 mm 0.00 in0.0 mm 0.00 in0.0 mm
01:55 AM 48.4°F9.1°C 42.8°F6.0°C 78% Calm Calm -- 29.92 in1013.2 mb 0.00 in0.0 mm 0.00 in0.0 mm 0.00 in0.0 mm
02:00 AM 48.0°F8.9°C 42.8°F6.0°C 78% Calm Calm -- 29.92 in1013.2 mb 0.00 in0.0 mm 0.00 in0.0 mm 0.00 in0.0 mm
02:05 AM 48.0°F8.9°C 42.8°F6.0°C 78% Calm Calm -- 29.92 in1013.2 mb 0.00 in0.0 mm 0.00 in0.0 mm 0.00 in0.0 mm
02:10 AM 48.0°F8.9°C 42.8°F6.0°C 78% Calm Calm -- 29.92 in1013.2 mb 0.00 in0.0 mm 0.00 in0.0 mm 0.00 in0.0 mm
02:15 AM 48.2°F9.0°C 42.8°F6.0°C 79% Calm Calm -- 29.92 in1013.2 mb 0.00 in0.0 mm 0.00 in0.0 mm 0.00 in0.0 mm
02:20 AM 48.2°F9.0°C 42.8°F6.0°C 79% Calm Calm -- 29.92 in1013.2 mb 0.00 in0.0 mm 0.00 in0.0 mm 0.00 in0.0 mm
02:25 AM 48.0°F8.9°C 42.8°F6.0°C 79% Calm Calm -- 29.92 in1013.2 mb 0.00 in0.0 mm 0.00 in0.0 mm 0.00 in0.0 mm
02:30 AM 47.8°F8.8°C 42.8°F6.0°C 79% Calm Calm -- 29.92 in1013.2 mb 0.00 in0.0 mm 0.00 in0.0 mm 0.00 in0.0 mm
02:35 AM 47.7°F8.7°C 42.8°F6.0°C 79% Calm Calm -- 29.92 in1013.2 mb 0.00 in0.0 mm 0.00 in0.0 mm 0.00 in0.0 mm
02:40 AM 47.8°F8.8°C 42.8°F6.0°C 79% Calm Calm -- 29.92 in1013.2 mb 0.00 in0.0 mm 0.00 in0.0 mm 0.00 in0.0 mm
02:45 AM 47.7°F8.7°C 42.8°F6.0°C 79% 0.3 mph ENE0.5 kmh ENE 1.3 mph2.1 kmh 29.92 in1013.2 mb 0.00 in0.0 mm 0.00 in0.0 mm 0.00 in0.0 mm
02:50 AM 47.7°F8.7°C 42.8°F6.0°C 79% 0.5 mph ENE0.8 kmh ENE 1.3 mph2.1 kmh 29.92 in1013.2 mb 0.00 in0.0 mm 0.00 in0.0 mm 0.00 in0.0 mm
02:55 AM 47.7°F8.7°C 42.8°F6.0°C 79% 0.1 mph ENE0.2 kmh ENE 1.1 mph1.8 kmh 29.92 in1013.2 mb 0.00 in0.0 mm 0.00 in0.0 mm 0.00 in0.0 mm
03:00 AM 47.5°F8.6°C 42.8°F6.0°C 79% 0.6 mph NE1.0 kmh NE 2.2 mph3.5 kmh 29.92 in1013.2 mb 0.00 in0.0 mm 0.00 in0.0 mm 0.00 in0.0 mm
03:05 AM 47.5°F8.6°C 42.8°F6.0°C 79% 1.4 mph NE2.3 kmh NE 2.2 mph3.5 kmh 29.92 in1013.2 mb 0.00 in0.0 mm 0.00 in0.0 mm 0.00 in0.0 mm
03:10 AM 47.5°F8.6°C 42.8°F6.0°C 79% 0.9 mph NE1.4 kmh NE 2.0 mph3.2 kmh 29.92 in1013.2 mb 0.00 in0.0 mm 0.00 in0.0 mm 0.00 in0.0 mm
03:15 AM 47.3°F8.5°C 42.8°F6.0°C 79% 0.9 mph NE1.4 kmh NE 2.7 mph4.3 kmh 29.92 in1013.2 mb 0.00 in0.0 mm 0.00 in0.0 mm 0.00 in0.0 mm
03:20 AM 47.3°F8.5°C 42.8°F6.0°C 79% 0.9 mph NNE1.4 kmh NNE 2.7 mph4.3 kmh 29.92 in1013.2 mb 0.00 in0.0 mm 0.00 in0.0 mm 0.00 in0.0 mm
03:25 AM 47.1°F8.4°C 41.0°F5.0°C 79% 0.5 mph NNE0.8 kmh NNE 1.1 mph1.8 kmh 29.92 in1013.2 mb 0.00 in0.0 mm 0.00 in0.0 mm 0.00 in0.0 mm
03:30 AM 46.9°F8.3°C 41.0°F5.0°C 79% 0.5 mph NE0.8 kmh NE 2.0 mph3.2 kmh 29.92 in1013.2 mb 0.00 in0.0 mm 0.00 in0.0 mm 0.00 in0.0 mm
03:35 AM 46.8°F8.2°C 41.0°F5.0°C 79% 0.4 mph NE0.6 kmh NE 2.0 mph3.2 kmh 29.92 in1013.2 mb 0.00 in0.0 mm 0.00 in0.0 mm 0.00 in0.0 mm
03:40 AM 46.9°F8.3°C 41.0°F5.0°C 79% 0.3 mph NE0.5 kmh NE 0.9 mph1.4 kmh 29.92 in1013.2 mb 0.00 in0.0 mm 0.00 in0.0 mm 0.00 in0.0 mm
03:45 AM 46.9°F8.3°C 41.0°F5.0°C 79% 0.3 mph NE0.5 kmh NE 0.9 mph1.4 kmh 29.92 in1013.2 mb 0.00 in0.0 mm 0.00 in0.0 mm 0.00 in0.0 mm
03:50 AM 46.8°F8.2°C 41.0°F5.0°C 79% 0.6 mph NNE1.0 kmh NNE 1.3 mph2.1 kmh 29.92 in1013.2 mb 0.00 in0.0 mm 0.00 in0.0 mm 0.00 in0.0 mm
03:55 AM 46.8°F8.2°C 41.0°F5.0°C 79% 0.5 mph NNE0.8 kmh NNE 1.3 mph2.1 kmh 29.92 in1013.2 mb 0.00 in0.0 mm 0.00 in0.0 mm 0.00 in0.0 mm
04:00 AM 46.8°F8.2°C 41.0°F5.0°C 79% 0.7 mph NE1.1 kmh NE 1.6 mph2.6 kmh 29.92 in1013.2 mb 0.00 in0.0 mm 0.00 in0.0 mm 0.00 in0.0 mm
04:05 AM 46.8°F8.2°C 41.0°F5.0°C 79% 0.7 mph NE1.1 kmh NE 1.6 mph2.6 kmh 29.92 in1013.2 mb 0.00 in0.0 mm 0.00 in0.0 mm 0.00 in0.0 mm
04:10 AM 46.8°F8.2°C 41.0°F5.0°C 79% 0.3 mph NE0.5 kmh NE 1.6 mph2.6 kmh 29.92 in1013.2 mb 0.00 in0.0 mm 0.00 in0.0 mm 0.00 in0.0 mm
04:15 AM 46.8°F8.2°C 41.0°F5.0°C 79% 0.7 mph N1.1 kmh N 1.6 mph2.6 kmh 29.92 in1013.2 mb 0.00 in0.0 mm 0.00 in0.0 mm 0.00 in0.0 mm
04:20 AM 46.8°F8.2°C 41.0°F5.0°C 79% 0.9 mph N1.4 kmh N 1.6 mph2.6 kmh 29.92 in1013.2 mb 0.00 in0.0 mm 0.00 in0.0 mm 0.00 in0.0 mm
04:25 AM 46.6°F8.1°C 41.0°F5.0°C 79% 0.5 mph NE0.8 kmh NE 1.6 mph2.6 kmh 29.95 in1014.2 mb 0.00 in0.0 mm 0.00 in0.0 mm 0.00 in0.0 mm
04:30 AM 46.6°F8.1°C 41.0°F5.0°C 79% 0.9 mph NE1.4 kmh NE 2.7 mph4.3 kmh 29.95 in1014.2 mb 0.00 in0.0 mm 0.00 in0.0 mm 0.00 in0.0 mm
04:35 AM 46.8°F8.2°C 41.0°F5.0°C 79% 1.5 mph NE2.4 kmh NE 2.7 mph4.3 kmh 29.95 in1014.2 mb 0.00 in0.0 mm 0.00 in0.0 mm 0.00 in0.0 mm
04:40 AM 46.4°F8.0°C 41.0°F5.0°C 79% 1.4 mph NNE2.3 kmh NNE 3.1 mph5.0 kmh 29.95 in1014.2 mb 0.00 in0.0 mm 0.00 in0.0 mm 0.00 in0.0 mm
04:45 AM 46.6°F8.1°C 41.0°F5.0°C 79% 1.6 mph NNE2.6 kmh NNE 3.1 mph5.0 kmh 29.95 in1014.2 mb 0.00 in0.0 mm 0.00 in0.0 mm 0.00 in0.0 mm
04:50 AM 46.8°F8.2°C 41.0°F5.0°C 79% 1.6 mph NE2.6 kmh NE 2.5 mph4.0 kmh 29.95 in1014.2 mb 0.00 in0.0 mm 0.00 in0.0 mm 0.00 in0.0 mm
04:55 AM 46.6°F8.1°C 41.0°F5.0°C 79% 1.1 mph NE1.8 kmh NE 2.5 mph4.0 kmh 29.95 in1014.2 mb 0.00 in0.0 mm 0.00 in0.0 mm 0.00 in0.0 mm
05:00 AM 46.6°F8.1°C 41.0°F5.0°C 79% 0.5 mph NE0.8 kmh NE 2.5 mph4.0 kmh 29.95 in1014.2 mb 0.00 in0.0 mm 0.00 in0.0 mm 0.00 in0.0 mm
05:05 AM 46.6°F8.1°C 41.0°F5.0°C 80% 0.5 mph N0.8 kmh N 1.6 mph2.6 kmh 29.95 in1014.2 mb 0.00 in0.0 mm 0.00 in0.0 mm 0.00 in0.0 mm
05:10 AM 46.4°F8.0°C 41.0°F5.0°C 80% 0.6 mph N1.0 kmh N 1.6 mph2.6 kmh 29.95 in1014.2 mb 0.00 in0.0 mm 0.00 in0.0 mm 0.00 in0.0 mm
05:15 AM 46.6°F8.1°C 41.0°F5.0°C 80% 0.4 mph NE0.6 kmh NE 2.0 mph3.2 kmh 29.95 in1014.2 mb 0.00 in0.0 mm 0.00 in0.0 mm 0.00 in0.0 mm
05:20 AM 46.4°F8.0°C 41.0°F5.0°C 80% 0.5 mph NE0.8 kmh NE 2.0 mph3.2 kmh 29.95 in1014.2 mb 0.00 in0.0 mm 0.00 in0.0 mm 0.00 in0.0 mm
05:25 AM 46.6°F8.1°C 41.0°F5.0°C 80% 0.2 mph NE0.3 kmh NE 2.0 mph3.2 kmh 29.95 in1014.2 mb 0.00 in0.0 mm 0.00 in0.0 mm 0.00 in0.0 mm
05:30 AM 46.6°F8.1°C 41.0°F5.0°C 80% Calm Calm -- 29.95 in1014.2 mb 0.00 in0.0 mm 0.00 in0.0 mm 0.00 in0.0 mm
05:35 AM 46.6°F8.1°C 41.0°F5.0°C 80% Calm Calm -- 29.95 in1014.2 mb 0.00 in0.0 mm 0.00 in0.0 mm 0.00 in0.0 mm
05:40 AM 46.4°F8.0°C 41.0°F5.0°C 80% 0.1 mph NW0.2 kmh NW 0.9 mph1.4 kmh 29.95 in1014.2 mb 0.00 in0.0 mm 0.00 in0.0 mm 0.00 in0.0 mm
05:45 AM 46.4°F8.0°C 41.0°F5.0°C 80% 0.5 mph N0.8 kmh N 1.3 mph2.1 kmh 29.95 in1014.2 mb 0.00 in0.0 mm 0.00 in0.0 mm 0.00 in0.0 mm
05:50 AM 46.4°F8.0°C 41.0°F5.0°C 80% 0.6 mph NE1.0 kmh NE 1.6 mph2.6 kmh 29.95 in1014.2 mb 0.00 in0.0 mm 0.00 in0.0 mm 0.00 in0.0 mm
05:55 AM 46.6°F8.1°C 41.0°F5.0°C 80% 0.3 mph NE0.5 kmh NE 1.6 mph2.6 kmh 29.95 in1014.2 mb 0.00 in0.0 mm 0.00 in0.0 mm 0.00 in0.0 mm
06:00 AM 46.6°F8.1°C 41.0°F5.0°C 80% 0.1 mph NE0.2 kmh NE 1.6 mph2.6 kmh 29.95 in1014.2 mb 0.00 in0.0 mm 0.00 in0.0 mm 0.00 in0.0 mm
06:05 AM 46.6°F8.1°C 41.0°F5.0°C 80% Calm Calm -- 29.95 in1014.2 mb 0.00 in0.0 mm 0.00 in0.0 mm 0.00 in0.0 mm
06:10 AM 46.8°F8.2°C 41.0°F5.0°C 80% Calm Calm -- 29.95 in1014.2 mb 0.00 in0.0 mm 0.00 in0.0 mm 0.00 in0.0 mm
06:15 AM 46.8°F8.2°C 41.0°F5.0°C 80% 0.4 mph NE0.6 kmh NE 1.6 mph2.6 kmh 29.95 in1014.2 mb 0.00 in0.0 mm 0.00 in0.0 mm 0.00 in0.0 mm
06:20 AM 47.3°F8.5°C 42.8°F6.0°C 80% 1.4 mph NE2.3 kmh NE 2.9 mph4.7 kmh 29.95 in1014.2 mb 0.00 in0.0 mm 0.00 in0.0 mm 0.00 in0.0 mm
06:25 AM 47.3°F8.5°C 42.8°F6.0°C 81% 1.6 mph NE2.6 kmh NE 2.9 mph4.7 kmh 29.95 in1014.2 mb 0.00 in0.0 mm 0.00 in0.0 mm 0.00 in0.0 mm
06:30 AM 47.5°F8.6°C 42.8°F6.0°C 81% 0.8 mph NE1.3 kmh NE 2.0 mph3.2 kmh 29.95 in1014.2 mb 0.00 in0.0 mm 0.00 in0.0 mm 0.00 in0.0 mm
06:35 AM 47.7°F8.7°C 42.8°F6.0°C 81% 0.2 mph NNE0.3 kmh NNE 1.6 mph2.6 kmh 29.95 in1014.2 mb 0.00 in0.0 mm 0.00 in0.0 mm 0.00 in0.0 mm
06:40 AM 47.8°F8.8°C 42.8°F6.0°C 81% 0.2 mph NNE0.3 kmh NNE 1.1 mph1.8 kmh 29.95 in1014.2 mb 0.00 in0.0 mm 0.00 in0.0 mm 0.00 in0.0 mm
06:45 AM 48.2°F9.0°C 42.8°F6.0°C 82% 0.2 mph NNE0.3 kmh NNE 1.1 mph1.8 kmh 29.95 in1014.2 mb 0.00 in0.0 mm 0.00 in0.0 mm 0.00 in0.0 mm
06:55 AM 48.9°F9.4°C 44.6°F7.0°C 82% Calm Calm -- 29.95 in1014.2 mb 0.00 in0.0 mm 0.00 in0.0 mm 0.00 in0.0 mm
07:00 AM 49.3°F9.6°C 44.6°F7.0°C 82% Calm Calm -- 29.95 in1014.2 mb 0.00 in0.0 mm 0.00 in0.0 mm 0.00 in0.0 mm
07:05 AM 49.8°F9.9°C 44.6°F7.0°C 83% Calm Calm -- 29.95 in1014.2 mb 0.00 in0.0 mm 0.00 in0.0 mm 0.00 in0.0 mm
07:10 AM 50.0°F10.0°C 44.6°F7.0°C 83% 0.4 mph SW0.6 kmh SW 2.0 mph3.2 kmh 29.95 in1014.2 mb 0.00 in0.0 mm 0.00 in0.0 mm 0.00 in0.0 mm
07:15 AM 50.4°F10.2°C 46.4°F8.0°C 82% 1.2 mph S1.9 kmh S 2.9 mph4.7 kmh 29.95 in1014.2 mb 0.00 in0.0 mm 0.00 in0.0 mm 0.00 in0.0 mm
07:20 AM 50.5°F10.3°C 46.4°F8.0°C 82% 0.8 mph SE1.3 kmh SE 2.9 mph4.7 kmh 29.95 in1014.2 mb 0.00 in0.0 mm 0.00 in0.0 mm 0.00 in0.0 mm
07:25 AM 50.9°F10.5°C 46.4°F8.0°C 82% 0.6 mph S1.0 kmh S 2.7 mph4.3 kmh 29.95 in1014.2 mb 0.00 in0.0 mm 0.00 in0.0 mm 0.00 in0.0 mm
07:30 AM 51.1°F10.6°C 46.4°F8.0°C 82% 0.5 mph SSW0.8 kmh SSW 2.0 mph3.2 kmh 29.95 in1014.2 mb 0.00 in0.0 mm 0.00 in0.0 mm 0.00 in0.0 mm
07:35 AM 51.4°F10.8°C 46.4°F8.0°C 82% 0.7 mph S1.1 kmh S 2.5 mph4.0 kmh 29.95 in1014.2 mb 0.00 in0.0 mm 0.00 in0.0 mm 0.00 in0.0 mm
07:40 AM 52.0°F11.1°C 46.4°F8.0°C 82% 1.1 mph SSE1.8 kmh SSE 2.5 mph4.0 kmh 29.92 in1013.2 mb 0.00 in0.0 mm 0.00 in0.0 mm 0.00 in0.0 mm
07:45 AM 53.1°F11.7°C 48.2°F9.0°C 82% 0.9 mph S1.4 kmh S 2.5 mph4.0 kmh 29.92 in1013.2 mb 0.00 in0.0 mm 0.00 in0.0 mm 0.00 in0.0 mm
07:50 AM 54.3°F12.4°C 50.0°F10.0°C 82% 0.7 mph S1.1 kmh S 2.5 mph4.0 kmh 29.92 in1013.2 mb 0.00 in0.0 mm 0.00 in0.0 mm 0.00 in0.0 mm
07:55 AM 54.7°F12.6°C 50.0°F10.0°C 81% 0.9 mph SW1.4 kmh SW 2.5 mph4.0 kmh 29.92 in1013.2 mb 0.00 in0.0 mm 0.00 in0.0 mm 0.00 in0.0 mm
08:00 AM 55.4°F13.0°C 50.0°F10.0°C 80% 0.9 mph SW1.4 kmh SW 2.0 mph3.2 kmh 29.92 in1013.2 mb 0.00 in0.0 mm 0.00 in0.0 mm 0.00 in0.0 mm
08:05 AM 55.4°F13.0°C 50.0°F10.0°C 80% 1.2 mph SSW1.9 kmh SSW 2.5 mph4.0 kmh 29.92 in1013.2 mb 0.00 in0.0 mm 0.00 in0.0 mm 0.00 in0.0 mm
08:10 AM 55.8°F13.2°C 50.0°F10.0°C 80% 1.8 mph S2.9 kmh S 4.0 mph6.4 kmh 29.92 in1013.2 mb 0.00 in0.0 mm 0.00 in0.0 mm 0.00 in0.0 mm
08:15 AM 56.1°F13.4°C 50.0°F10.0°C 80% 1.9 mph SW3.1 kmh SW 4.0 mph6.4 kmh 29.92 in1013.2 mb 0.00 in0.0 mm 0.00 in0.0 mm 0.00 in0.0 mm
08:20 AM 56.7°F13.7°C 51.8°F11.0°C 80% 1.3 mph WSW2.1 kmh WSW 2.9 mph4.7 kmh 29.92 in1013.2 mb 0.00 in0.0 mm 0.00 in0.0 mm 0.00 in0.0 mm
08:25 AM 57.2°F14.0°C 51.8°F11.0°C 79% 1.7 mph WSW2.7 kmh WSW 4.3 mph6.9 kmh 29.92 in1013.2 mb 0.00 in0.0 mm 0.00 in0.0 mm 0.00 in0.0 mm
08:30 AM 57.0°F13.9°C 51.8°F11.0°C 79% 2.3 mph WSW3.7 kmh WSW 4.3 mph6.9 kmh 29.92 in1013.2 mb 0.00 in0.0 mm 0.00 in0.0 mm 0.00 in0.0 mm
08:35 AM 57.2°F14.0°C 51.8°F11.0°C 79% 2.6 mph WSW4.2 kmh WSW 5.8 mph9.3 kmh 29.92 in1013.2 mb 0.00 in0.0 mm 0.00 in0.0 mm 0.00 in0.0 mm
08:40 AM 57.4°F14.1°C 51.8°F11.0°C 79% 2.0 mph WSW3.2 kmh WSW 5.8 mph9.3 kmh 29.95 in1014.2 mb 0.00 in0.0 mm 0.00 in0.0 mm 0.00 in0.0 mm
08:45 AM 57.9°F14.4°C 51.8°F11.0°C 79% 1.7 mph SSW2.7 kmh SSW 3.8 mph6.1 kmh 29.95 in1014.2 mb 0.00 in0.0 mm 0.00 in0.0 mm 0.00 in0.0 mm
08:50 AM 58.3°F14.6°C 51.8°F11.0°C 79% 2.3 mph S3.7 kmh S 4.3 mph6.9 kmh 29.95 in1014.2 mb 0.00 in0.0 mm 0.00 in0.0 mm 0.00 in0.0 mm
08:55 AM 58.5°F14.7°C 51.8°F11.0°C 78% 2.7 mph S4.3 kmh S 5.4 mph8.7 kmh 29.95 in1014.2 mb 0.00 in0.0 mm 0.00 in0.0 mm 0.00 in0.0 mm
09:00 AM 58.5°F14.7°C 51.8°F11.0°C 78% 4.5 mph SSE7.2 kmh SSE 5.4 mph8.7 kmh 29.95 in1014.2 mb 0.00 in0.0 mm 0.00 in0.0 mm 0.00 in0.0 mm
09:05 AM 58.5°F14.7°C 51.8°F11.0°C 78% 5.4 mph SSE8.7 kmh SSE 5.4 mph8.7 kmh 29.95 in1014.2 mb 0.00 in0.0 mm 0.00 in0.0 mm 0.00 in0.0 mm
09:10 AM 58.8°F14.9°C 51.8°F11.0°C 78% 3.8 mph S6.1 kmh S 5.4 mph8.7 kmh 29.95 in1014.2 mb 0.00 in0.0 mm 0.00 in0.0 mm 0.00 in0.0 mm
09:15 AM 58.8°F14.9°C 51.8°F11.0°C 77% 3.1 mph SSW5.0 kmh SSW 4.7 mph7.6 kmh 29.95 in1014.2 mb 0.00 in0.0 mm 0.00 in0.0 mm 0.00 in0.0 mm
09:20 AM 59.2°F15.1°C 51.8°F11.0°C 77% 2.9 mph S4.7 kmh S 5.8 mph9.3 kmh 29.95 in1014.2 mb 0.00 in0.0 mm 0.00 in0.0 mm 0.00 in0.0 mm
09:25 AM 59.5°F15.3°C 53.6°F12.0°C 77% 2.8 mph S4.5 kmh S 5.8 mph9.3 kmh 29.95 in1014.2 mb 0.00 in0.0 mm 0.00 in0.0 mm 0.00 in0.0 mm
09:30 AM 59.7°F15.4°C 53.6°F12.0°C 77% 2.9 mph SSE4.7 kmh SSE 4.9 mph7.9 kmh 29.95 in1014.2 mb 0.00 in0.0 mm 0.00 in0.0 mm 0.00 in0.0 mm
09:35 AM 60.3°F15.7°C 53.6°F12.0°C 77% 3.6 mph S5.8 kmh S 5.4 mph8.7 kmh 29.95 in1014.2 mb 0.00 in0.0 mm 0.00 in0.0 mm 0.00 in0.0 mm
09:40 AM 60.4°F15.8°C 53.6°F12.0°C 76% 4.0 mph SW6.4 kmh SW 6.3 mph10.1 kmh 29.95 in1014.2 mb 0.00 in0.0 mm 0.00 in0.0 mm 0.00 in0.0 mm
09:45 AM 60.6°F15.9°C 53.6°F12.0°C 76% 3.7 mph SW6.0 kmh SW 6.3 mph10.1 kmh 29.95 in1014.2 mb 0.00 in0.0 mm 0.00 in0.0 mm 0.00 in0.0 mm
09:50 AM 61.2°F16.2°C 53.6°F12.0°C 76% 3.0 mph S4.8 kmh S 5.4 mph8.7 kmh 29.95 in1014.2 mb 0.00 in0.0 mm 0.00 in0.0 mm 0.00 in0.0 mm
09:55 AM 61.7°F16.5°C 55.4°F13.0°C 75% 2.8 mph S4.5 kmh S 5.4 mph8.7 kmh 29.95 in1014.2 mb 0.00 in0.0 mm 0.00 in0.0 mm 0.00 in0.0 mm
10:00 AM 62.6°F17.0°C 55.4°F13.0°C 74% 2.4 mph SSW3.9 kmh SSW 3.4 mph5.5 kmh 29.95 in1014.2 mb 0.00 in0.0 mm 0.00 in0.0 mm 0.00 in0.0 mm
10:05 AM 63.9°F17.7°C 55.4°F13.0°C 73% 3.5 mph S5.6 kmh S 6.5 mph10.5 kmh 29.95 in1014.2 mb 0.00 in0.0 mm 0.00 in0.0 mm 0.00 in0.0 mm
10:10 AM 66.6°F19.2°C 57.2°F14.0°C 71% 4.4 mph S7.1 kmh S 6.5 mph10.5 kmh 29.95 in1014.2 mb 0.00 in0.0 mm 0.00 in0.0 mm 0.00 in0.0 mm
10:15 AM 66.2°F19.0°C 55.4°F13.0°C 70% 5.0 mph SSE8.0 kmh SSE 11.0 mph17.7 kmh 29.95 in1014.2 mb 0.00 in0.0 mm 0.00 in0.0 mm 0.00 in0.0 mm
10:20 AM 66.0°F18.9°C 57.2°F14.0°C 72% 4.1 mph SSE6.6 kmh SSE 11.0 mph17.7 kmh 29.95 in1014.2 mb 0.00 in0.0 mm 0.00 in0.0 mm 0.00 in0.0 mm
10:25 AM 66.7°F19.3°C 57.2°F14.0°C 71% 2.9 mph SSE4.7 kmh SSE 4.9 mph7.9 kmh 29.95 in1014.2 mb 0.00 in0.0 mm 0.00 in0.0 mm 0.00 in0.0 mm
10:30 AM 68.4°F20.2°C 57.2°F14.0°C 68% 4.7 mph SSW7.6 kmh SSW 10.3 mph16.6 kmh 29.95 in1014.2 mb 0.00 in0.0 mm 0.00 in0.0 mm 0.00 in0.0 mm
10:35 AM 68.5°F20.3°C 57.2°F14.0°C 68% 5.0 mph SSW8.0 kmh SSW 10.3 mph16.6 kmh 29.95 in1014.2 mb 0.00 in0.0 mm 0.00 in0.0 mm 0.00 in0.0 mm
10:40 AM 68.9°F20.5°C 59.0°F15.0°C 68% 4.3 mph S6.9 kmh S 9.8 mph15.8 kmh 29.95 in1014.2 mb 0.00 in0.0 mm 0.00 in0.0 mm 0.00 in0.0 mm
10:45 AM 68.9°F20.5°C 57.2°F14.0°C 67% 4.3 mph SSW6.9 kmh SSW 5.8 mph9.3 kmh 29.95 in1014.2 mb 0.00 in0.0 mm 0.00 in0.0 mm 0.00 in0.0 mm
10:50 AM 68.4°F20.2°C 57.2°F14.0°C 67% 4.7 mph SW7.6 kmh SW 7.6 mph12.2 kmh 29.95 in1014.2 mb 0.00 in0.0 mm 0.00 in0.0 mm 0.00 in0.0 mm
10:55 AM 68.2°F20.1°C 57.2°F14.0°C 67% 4.6 mph WSW7.4 kmh WSW 7.6 mph12.2 kmh 29.95 in1014.2 mb 0.00 in0.0 mm 0.00 in0.0 mm 0.00 in0.0 mm
11:00 AM 68.0°F20.0°C 55.4°F13.0°C 66% 5.9 mph WSW9.5 kmh WSW 10.7 mph17.2 kmh 29.95 in1014.2 mb 0.00 in0.0 mm 0.00 in0.0 mm 0.00 in0.0 mm
11:05 AM 67.5°F19.7°C 55.4°F13.0°C 66% 7.2 mph SSW11.6 kmh SSW 10.7 mph17.2 kmh 29.95 in1014.2 mb 0.00 in0.0 mm 0.00 in0.0 mm 0.00 in0.0 mm
11:10 AM 67.8°F19.9°C 57.2°F14.0°C 67% 6.3 mph SSW10.1 kmh SSW 8.7 mph14.0 kmh 29.95 in1014.2 mb 0.00 in0.0 mm 0.00 in0.0 mm 0.00 in0.0 mm
11:15 AM 67.5°F19.7°C 55.4°F13.0°C 66% 5.6 mph SW9.0 kmh SW 12.5 mph20.1 kmh 29.95 in1014.2 mb 0.00 in0.0 mm 0.00 in0.0 mm 0.00 in0.0 mm
11:20 AM 67.3°F19.6°C 55.4°F13.0°C 66% 4.8 mph SSW7.7 kmh SSW 12.5 mph20.1 kmh 29.95 in1014.2 mb 0.00 in0.0 mm 0.00 in0.0 mm 0.00 in0.0 mm
11:25 AM 67.6°F19.8°C 55.4°F13.0°C 66% 4.7 mph SSW7.6 kmh SSW 7.6 mph12.2 kmh 29.95 in1014.2 mb 0.00 in0.0 mm 0.00 in0.0 mm 0.00 in0.0 mm
11:30 AM 68.4°F20.2°C 55.4°F13.0°C 64% 5.4 mph SW8.7 kmh SW 9.8 mph15.8 kmh 29.95 in1014.2 mb 0.00 in0.0 mm 0.00 in0.0 mm 0.00 in0.0 mm
11:35 AM 68.4°F20.2°C 55.4°F13.0°C 63% 5.9 mph SW9.5 kmh SW 9.8 mph15.8 kmh 29.95 in1014.2 mb 0.00 in0.0 mm 0.00 in0.0 mm 0.00 in0.0 mm
11:40 AM 68.0°F20.0°C 55.4°F13.0°C 63% 5.0 mph SW8.0 kmh SW 8.7 mph14.0 kmh 29.95 in1014.2 mb 0.00 in0.0 mm 0.00 in0.0 mm 0.00 in0.0 mm
11:45 AM 67.5°F19.7°C 55.4°F13.0°C 63% 4.5 mph SW7.2 kmh SW 7.2 mph11.6 kmh 29.95 in1014.2 mb 0.00 in0.0 mm 0.00 in0.0 mm 0.00 in0.0 mm
11:50 AM 67.6°F19.8°C 55.4°F13.0°C 63% 4.7 mph SW7.6 kmh SW 8.7 mph14.0 kmh 29.95 in1014.2 mb 0.00 in0.0 mm 0.00 in0.0 mm 0.00 in0.0 mm
11:55 AM 68.2°F20.1°C 55.4°F13.0°C 62% 6.2 mph SW10.0 kmh SW 10.1 mph16.3 kmh 29.98 in1015.2 mb 0.00 in0.0 mm 0.00 in0.0 mm 0.00 in0.0 mm
12:00 PM 68.4°F20.2°C 55.4°F13.0°C 61% 6.0 mph SW9.7 kmh SW 10.1 mph16.3 kmh 29.98 in1015.2 mb 0.00 in0.0 mm 0.00 in0.0 mm 0.00 in0.0 mm
12:05 PM 68.5°F20.3°C 55.4°F13.0°C 61% 5.3 mph SW8.5 kmh SW 8.1 mph13.0 kmh 29.98 in1015.2 mb 0.00 in0.0 mm 0.00 in0.0 mm 0.00 in0.0 mm
12:10 PM 68.7°F20.4°C 55.4°F13.0°C 61% 5.0 mph SW8.0 kmh SW 8.1 mph13.0 kmh 29.95 in1014.2 mb 0.00 in0.0 mm 0.00 in0.0 mm 0.00 in0.0 mm
12:15 PM 68.7°F20.4°C 55.4°F13.0°C 60% 4.9 mph SW7.9 kmh SW 11.0 mph17.7 kmh 29.95 in1014.2 mb 0.00 in0.0 mm 0.00 in0.0 mm 0.00 in0.0 mm
12:20 PM 68.5°F20.3°C 55.4°F13.0°C 60% 4.9 mph SSW7.9 kmh SSW 11.0 mph17.7 kmh 29.95 in1014.2 mb 0.00 in0.0 mm 0.00 in0.0 mm 0.00 in0.0 mm
12:25 PM 68.2°F20.1°C 53.6°F12.0°C 60% 7.4 mph SSW11.9 kmh SSW 15.2 mph24.5 kmh 29.95 in1014.2 mb 0.00 in0.0 mm 0.00 in0.0 mm 0.00 in0.0 mm
12:30 PM 68.4°F20.2°C 53.6°F12.0°C 59% 8.3 mph SSW13.4 kmh SSW 15.2 mph24.5 kmh 29.95 in1014.2 mb 0.00 in0.0 mm 0.00 in0.0 mm 0.00 in0.0 mm
12:35 PM 68.5°F20.3°C 55.4°F13.0°C 60% 6.4 mph S10.3 kmh S 12.5 mph20.1 kmh 29.95 in1014.2 mb 0.00 in0.0 mm 0.00 in0.0 mm 0.00 in0.0 mm
12:40 PM 68.4°F20.2°C 53.6°F12.0°C 59% 5.7 mph WSW9.2 kmh WSW 9.8 mph15.8 kmh 29.98 in1015.2 mb 0.00 in0.0 mm 0.00 in0.0 mm 0.00 in0.0 mm
12:45 PM 68.2°F20.1°C 53.6°F12.0°C 59% 5.4 mph WSW8.7 kmh WSW 9.8 mph15.8 kmh 29.98 in1015.2 mb 0.00 in0.0 mm 0.00 in0.0 mm 0.00 in0.0 mm
12:50 PM 68.2°F20.1°C 53.6°F12.0°C 59% 5.3 mph SW8.5 kmh SW 10.5 mph16.9 kmh 29.98 in1015.2 mb 0.00 in0.0 mm 0.00 in0.0 mm 0.00 in0.0 mm
12:55 PM 68.2°F20.1°C 53.6°F12.0°C 59% 5.2 mph SW8.4 kmh SW 10.5 mph16.9 kmh 29.95 in1014.2 mb 0.00 in0.0 mm 0.00 in0.0 mm 0.00 in0.0 mm
01:00 PM 68.2°F20.1°C 53.6°F12.0°C 59% 4.5 mph SW7.2 kmh SW 8.7 mph14.0 kmh 29.95 in1014.2 mb 0.00 in0.0 mm 0.00 in0.0 mm 0.00 in0.0 mm
01:05 PM 68.2°F20.1°C 53.6°F12.0°C 59% 4.5 mph SSW7.2 kmh SSW 8.7 mph14.0 kmh 29.95 in1014.2 mb 0.00 in0.0 mm 0.00 in0.0 mm 0.00 in0.0 mm
01:10 PM 68.4°F20.2°C 53.6°F12.0°C 59% 5.0 mph SSW8.0 kmh SSW 8.5 mph13.7 kmh 29.98 in1015.2 mb 0.00 in0.0 mm 0.00 in0.0 mm 0.00 in0.0 mm
01:15 PM 68.5°F20.3°C 53.6°F12.0°C 59% 5.1 mph SW8.2 kmh SW 8.5 mph13.7 kmh 29.98 in1015.2 mb 0.00 in0.0 mm 0.00 in0.0 mm 0.00 in0.0 mm
01:20 PM 68.2°F20.1°C 53.6°F12.0°C 58% 5.7 mph SSW9.2 kmh SSW 8.1 mph13.0 kmh 29.98 in1015.2 mb 0.00 in0.0 mm 0.00 in0.0 mm 0.00 in0.0 mm
01:25 PM 68.0°F20.0°C 53.6°F12.0°C 58% 5.9 mph SW9.5 kmh SW 9.8 mph15.8 kmh 29.98 in1015.2 mb 0.00 in0.0 mm 0.00 in0.0 mm 0.00 in0.0 mm
01:30 PM 67.8°F19.9°C 53.6°F12.0°C 60% 5.2 mph SW8.4 kmh SW 9.8 mph15.8 kmh 29.98 in1015.2 mb 0.00 in0.0 mm 0.00 in0.0 mm 0.00 in0.0 mm
01:35 PM 67.3°F19.6°C 53.6°F12.0°C 60% 4.9 mph SW7.9 kmh SW 8.5 mph13.7 kmh 29.98 in1015.2 mb 0.00 in0.0 mm 0.00 in0.0 mm 0.00 in0.0 mm
01:40 PM 67.3°F19.6°C 53.6°F12.0°C 60% 5.2 mph SW8.4 kmh SW 9.6 mph15.4 kmh 29.98 in1015.2 mb 0.00 in0.0 mm 0.00 in0.0 mm 0.00 in0.0 mm
01:45 PM 66.9°F19.4°C 51.8°F11.0°C 59% 5.8 mph WSW9.3 kmh WSW 12.3 mph19.8 kmh 29.98 in1015.2 mb 0.00 in0.0 mm 0.00 in0.0 mm 0.00 in0.0 mm
01:50 PM 67.1°F19.5°C 53.6°F12.0°C 59% 6.4 mph WSW10.3 kmh WSW 12.3 mph19.8 kmh 29.98 in1015.2 mb 0.00 in0.0 mm 0.00 in0.0 mm 0.00 in0.0 mm
01:55 PM 67.8°F19.9°C 53.6°F12.0°C 58% 6.7 mph WSW10.8 kmh WSW 10.7 mph17.2 kmh 29.98 in1015.2 mb 0.00 in0.0 mm 0.00 in0.0 mm 0.00 in0.0 mm
02:00 PM 68.7°F20.4°C 53.6°F12.0°C 57% 6.2 mph WSW10.0 kmh WSW 11.0 mph17.7 kmh 29.98 in1015.2 mb 0.00 in0.0 mm 0.00 in0.0 mm 0.00 in0.0 mm
02:05 PM 69.1°F20.6°C 53.6°F12.0°C 57% 5.1 mph WSW8.2 kmh WSW 11.0 mph17.7 kmh 29.98 in1015.2 mb 0.00 in0.0 mm 0.00 in0.0 mm 0.00 in0.0 mm
02:10 PM 69.4°F20.8°C 53.6°F12.0°C 56% 5.6 mph SSW9.0 kmh SSW 11.0 mph17.7 kmh 29.98 in1015.2 mb 0.00 in0.0 mm 0.00 in0.0 mm 0.00 in0.0 mm
02:15 PM 68.7°F20.4°C 53.6°F12.0°C 57% 5.1 mph SW8.2 kmh SW 8.1 mph13.0 kmh 29.98 in1015.2 mb 0.00 in0.0 mm 0.00 in0.0 mm 0.00 in0.0 mm
02:20 PM 68.7°F20.4°C 51.8°F11.0°C 56% 5.6 mph SW9.0 kmh SW 11.9 mph19.2 kmh 29.98 in1015.2 mb 0.00 in0.0 mm 0.00 in0.0 mm 0.00 in0.0 mm
02:25 PM 69.6°F20.9°C 53.6°F12.0°C 55% 6.3 mph SW10.1 kmh SW 11.9 mph19.2 kmh 29.98 in1015.2 mb 0.00 in0.0 mm 0.00 in0.0 mm 0.00 in0.0 mm
02:30 PM 69.3°F20.7°C 51.8°F11.0°C 55% 5.6 mph SW9.0 kmh SW 8.9 mph14.3 kmh 29.98 in1015.2 mb 0.00 in0.0 mm 0.00 in0.0 mm 0.00 in0.0 mm
02:35 PM 69.6°F20.9°C 53.6°F12.0°C 55% 5.5 mph SSW8.9 kmh SSW 8.9 mph14.3 kmh 29.98 in1015.2 mb 0.00 in0.0 mm 0.00 in0.0 mm 0.00 in0.0 mm
02:40 PM 69.3°F20.7°C 53.6°F12.0°C 56% 6.5 mph SSW10.5 kmh SSW 11.0 mph17.7 kmh 29.98 in1015.2 mb 0.00 in0.0 mm 0.00 in0.0 mm 0.00 in0.0 mm
02:45 PM 68.9°F20.5°C 53.6°F12.0°C 56% 5.5 mph SW8.9 kmh SW 11.0 mph17.7 kmh 29.98 in1015.2 mb 0.00 in0.0 mm 0.00 in0.0 mm 0.00 in0.0 mm
02:50 PM 68.5°F20.3°C 51.8°F11.0°C 56% 5.9 mph SW9.5 kmh SW 11.0 mph17.7 kmh 29.98 in1015.2 mb 0.00 in0.0 mm 0.00 in0.0 mm 0.00 in0.0 mm
02:55 PM 68.0°F20.0°C 51.8°F11.0°C 56% 6.3 mph SW10.1 kmh SW 9.6 mph15.4 kmh 29.98 in1015.2 mb 0.00 in0.0 mm 0.00 in0.0 mm 0.00 in0.0 mm
03:00 PM 67.6°F19.8°C 51.8°F11.0°C 57% 4.7 mph SW7.6 kmh SW 9.4 mph15.1 kmh 29.98 in1015.2 mb 0.00 in0.0 mm 0.00 in0.0 mm 0.00 in0.0 mm
03:05 PM 67.5°F19.7°C 51.8°F11.0°C 57% 4.7 mph SSW7.6 kmh SSW 9.4 mph15.1 kmh 29.98 in1015.2 mb 0.00 in0.0 mm 0.00 in0.0 mm 0.00 in0.0 mm
03:10 PM 67.5°F19.7°C 51.8°F11.0°C 57% 4.7 mph S7.6 kmh S 7.4 mph11.9 kmh 29.98 in1015.2 mb 0.00 in0.0 mm 0.00 in0.0 mm 0.00 in0.0 mm
03:15 PM 67.6°F19.8°C 51.8°F11.0°C 56% 4.3 mph SSW6.9 kmh SSW 6.3 mph10.1 kmh 29.98 in1015.2 mb 0.00 in0.0 mm 0.00 in0.0 mm 0.00 in0.0 mm
03:20 PM 67.8°F19.9°C 51.8°F11.0°C 56% 4.8 mph WSW7.7 kmh WSW 8.5 mph13.7 kmh 29.98 in1015.2 mb 0.00 in0.0 mm 0.00 in0.0 mm 0.00 in0.0 mm
03:25 PM 68.0°F20.0°C 51.8°F11.0°C 55% 4.5 mph WSW7.2 kmh WSW 8.5 mph13.7 kmh 29.98 in1015.2 mb 0.00 in0.0 mm 0.00 in0.0 mm 0.00 in0.0 mm
03:30 PM 67.6°F19.8°C 51.8°F11.0°C 56% 5.2 mph WSW8.4 kmh WSW 10.5 mph16.9 kmh 29.98 in1015.2 mb 0.00 in0.0 mm 0.00 in0.0 mm 0.00 in0.0 mm
03:35 PM 67.3°F19.6°C 51.8°F11.0°C 56% 5.3 mph WSW8.5 kmh WSW 10.5 mph16.9 kmh 29.98 in1015.2 mb 0.00 in0.0 mm 0.00 in0.0 mm 0.00 in0.0 mm
03:40 PM 66.9°F19.4°C 51.8°F11.0°C 57% 4.5 mph SW7.2 kmh SW 7.4 mph11.9 kmh 29.98 in1015.2 mb 0.00 in0.0 mm 0.00 in0.0 mm 0.00 in0.0 mm
03:45 PM 66.7°F19.3°C 51.8°F11.0°C 57% 4.7 mph SW7.6 kmh SW 6.7 mph10.8 kmh 29.98 in1015.2 mb 0.00 in0.0 mm 0.00 in0.0 mm 0.00 in0.0 mm
03:50 PM 66.6°F19.2°C 51.8°F11.0°C 57% 4.5 mph SW7.2 kmh SW 6.7 mph10.8 kmh 29.98 in1015.2 mb 0.00 in0.0 mm 0.00 in0.0 mm 0.00 in0.0 mm
03:55 PM 66.7°F19.3°C 51.8°F11.0°C 57% 4.9 mph SW7.9 kmh SW 6.3 mph10.1 kmh 29.98 in1015.2 mb 0.00 in0.0 mm 0.00 in0.0 mm 0.00 in0.0 mm
04:00 PM 66.9°F19.4°C 51.8°F11.0°C 57% 4.3 mph SW6.9 kmh SW 5.8 mph9.3 kmh 29.98 in1015.2 mb 0.00 in0.0 mm 0.00 in0.0 mm 0.00 in0.0 mm
04:05 PM 66.9°F19.4°C 51.8°F11.0°C 57% 4.2 mph SW6.8 kmh SW 9.6 mph15.4 kmh 29.98 in1015.2 mb 0.00 in0.0 mm 0.00 in0.0 mm 0.00 in0.0 mm
04:10 PM 66.7°F19.3°C 51.8°F11.0°C 57% 4.5 mph SW7.2 kmh SW 9.6 mph15.4 kmh 29.98 in1015.2 mb 0.00 in0.0 mm 0.00 in0.0 mm 0.00 in0.0 mm
04:15 PM 66.6°F19.2°C 51.8°F11.0°C 57% 4.4 mph SW7.1 kmh SW 8.7 mph14.0 kmh 29.98 in1015.2 mb 0.00 in0.0 mm 0.00 in0.0 mm 0.00 in0.0 mm
04:20 PM 66.4°F19.1°C 50.0°F10.0°C 57% 4.5 mph SW7.2 kmh SW 9.8 mph15.8 kmh 29.98 in1015.2 mb 0.00 in0.0 mm 0.00 in0.0 mm 0.00 in0.0 mm
04:25 PM 66.2°F19.0°C 50.0°F10.0°C 57% 4.5 mph SW7.2 kmh SW 9.8 mph15.8 kmh 29.95 in1014.2 mb 0.00 in0.0 mm 0.00 in0.0 mm 0.00 in0.0 mm
04:30 PM 66.2°F19.0°C 50.0°F10.0°C 57% 4.4 mph SW7.1 kmh SW 10.1 mph16.3 kmh 29.95 in1014.2 mb 0.00 in0.0 mm 0.00 in0.0 mm 0.00 in0.0 mm
04:35 PM 66.2°F19.0°C 50.0°F10.0°C 57% 5.2 mph SSW8.4 kmh SSW 10.1 mph16.3 kmh 29.95 in1014.2 mb 0.00 in0.0 mm 0.00 in0.0 mm 0.00 in0.0 mm
04:40 PM 66.2°F19.0°C 50.0°F10.0°C 57% 6.0 mph SSW9.7 kmh SSW 10.1 mph16.3 kmh 29.98 in1015.2 mb 0.00 in0.0 mm 0.00 in0.0 mm 0.00 in0.0 mm
04:45 PM 66.2°F19.0°C 50.0°F10.0°C 56% 5.5 mph SSW8.9 kmh SSW 10.3 mph16.6 kmh 29.98 in1015.2 mb 0.00 in0.0 mm 0.00 in0.0 mm 0.00 in0.0 mm
04:50 PM 66.0°F18.9°C 51.8°F11.0°C 58% 5.3 mph S8.5 kmh S 10.3 mph16.6 kmh 29.98 in1015.2 mb 0.00 in0.0 mm 0.00 in0.0 mm 0.00 in0.0 mm
04:55 PM 66.0°F18.9°C 51.8°F11.0°C 58% 5.6 mph SSW9.0 kmh SSW 10.3 mph16.6 kmh 29.95 in1014.2 mb 0.00 in0.0 mm 0.00 in0.0 mm 0.00 in0.0 mm
05:00 PM 65.8°F18.8°C 50.0°F10.0°C 58% 4.9 mph SSW7.9 kmh SSW 6.3 mph10.1 kmh 29.95 in1014.2 mb 0.00 in0.0 mm 0.00 in0.0 mm 0.00 in0.0 mm
05:05 PM 65.8°F18.8°C 50.0°F10.0°C 58% 4.4 mph SW7.1 kmh SW 7.6 mph12.2 kmh 29.95 in1014.2 mb 0.00 in0.0 mm 0.00 in0.0 mm 0.00 in0.0 mm
05:10 PM 65.8°F18.8°C 50.0°F10.0°C 58% 5.3 mph SW8.5 kmh SW 8.5 mph13.7 kmh 29.95 in1014.2 mb 0.00 in0.0 mm 0.00 in0.0 mm 0.00 in0.0 mm
05:15 PM 65.8°F18.8°C 50.0°F10.0°C 58% 5.6 mph S9.0 kmh S 8.5 mph13.7 kmh 29.95 in1014.2 mb 0.00 in0.0 mm 0.00 in0.0 mm 0.00 in0.0 mm
05:20 PM 65.8°F18.8°C 50.0°F10.0°C 58% 4.9 mph S7.9 kmh S 8.7 mph14.0 kmh 29.95 in1014.2 mb 0.00 in0.0 mm 0.00 in0.0 mm 0.00 in0.0 mm
05:25 PM 65.8°F18.8°C 50.0°F10.0°C 58% 4.5 mph SSW7.2 kmh SSW 9.8 mph15.8 kmh 29.95 in1014.2 mb 0.00 in0.0 mm 0.00 in0.0 mm 0.00 in0.0 mm
05:30 PM 65.8°F18.8°C 50.0°F10.0°C 58% 4.5 mph SSW7.2 kmh SSW 9.8 mph15.8 kmh 29.95 in1014.2 mb 0.00 in0.0 mm 0.00 in0.0 mm 0.00 in0.0 mm
05:35 PM 66.0°F18.9°C 51.8°F11.0°C 58% 4.4 mph SSW7.1 kmh SSW 8.1 mph13.0 kmh 29.95 in1014.2 mb 0.00 in0.0 mm 0.00 in0.0 mm 0.00 in0.0 mm
05:40 PM 66.0°F18.9°C 51.8°F11.0°C 58% 4.5 mph SSW7.2 kmh SSW 8.1 mph13.0 kmh 29.95 in1014.2 mb 0.00 in0.0 mm 0.00 in0.0 mm 0.00 in0.0 mm
05:45 PM 65.8°F18.8°C 51.8°F11.0°C 59% 5.0 mph SW8.0 kmh SW 9.6 mph15.4 kmh 29.95 in1014.2 mb 0.00 in0.0 mm 0.00 in0.0 mm 0.00 in0.0 mm
05:50 PM 65.7°F18.7°C 51.8°F11.0°C 59% 4.7 mph SW7.6 kmh SW 9.6 mph15.4 kmh 29.95 in1014.2 mb 0.00 in0.0 mm 0.00 in0.0 mm 0.00 in0.0 mm
05:55 PM 65.7°F18.7°C 51.8°F11.0°C 59% 3.4 mph SSW5.5 kmh SSW 7.8 mph12.6 kmh 29.95 in1014.2 mb 0.00 in0.0 mm 0.00 in0.0 mm 0.00 in0.0 mm
06:00 PM 65.7°F18.7°C 51.8°F11.0°C 59% 3.8 mph SW6.1 kmh SW 6.3 mph10.1 kmh 29.95 in1014.2 mb 0.00 in0.0 mm 0.00 in0.0 mm 0.00 in0.0 mm
06:05 PM 65.7°F18.7°C 50.0°F10.0°C 58% 5.1 mph SW8.2 kmh SW 10.3 mph16.6 kmh 29.95 in1014.2 mb 0.00 in0.0 mm 0.00 in0.0 mm 0.00 in0.0 mm
06:10 PM 65.5°F18.6°C 50.0°F10.0°C 58% 4.9 mph SW7.9 kmh SW 10.3 mph16.6 kmh 29.98 in1015.2 mb 0.00 in0.0 mm 0.00 in0.0 mm 0.00 in0.0 mm
06:15 PM 65.5°F18.6°C 50.0°F10.0°C 58% 4.1 mph SW6.6 kmh SW 9.4 mph15.1 kmh 29.98 in1015.2 mb 0.00 in0.0 mm 0.00 in0.0 mm 0.00 in0.0 mm
06:20 PM 65.5°F18.6°C 50.0°F10.0°C 58% 4.0 mph SW6.4 kmh SW 6.5 mph10.5 kmh 29.98 in1015.2 mb 0.00 in0.0 mm 0.00 in0.0 mm 0.00 in0.0 mm
06:25 PM 65.3°F18.5°C 51.8°F11.0°C 59% 4.3 mph SW6.9 kmh SW 6.5 mph10.5 kmh 29.98 in1015.2 mb 0.00 in0.0 mm 0.00 in0.0 mm 0.00 in0.0 mm
06:30 PM 65.3°F18.5°C 50.0°F10.0°C 58% 5.0 mph SW8.0 kmh SW 11.0 mph17.7 kmh 29.98 in1015.2 mb 0.00 in0.0 mm 0.00 in0.0 mm 0.00 in0.0 mm
06:35 PM 65.3°F18.5°C 50.0°F10.0°C 58% 5.5 mph WSW8.9 kmh WSW 11.0 mph17.7 kmh 29.98 in1015.2 mb 0.00 in0.0 mm 0.00 in0.0 mm 0.00 in0.0 mm
06:40 PM 65.1°F18.4°C 50.0°F10.0°C 58% 5.4 mph SW8.7 kmh SW 10.7 mph17.2 kmh 29.95 in1014.2 mb 0.00 in0.0 mm 0.00 in0.0 mm 0.00 in0.0 mm
06:45 PM 65.1°F18.4°C 50.0°F10.0°C 58% 4.9 mph S7.9 kmh S 9.6 mph15.4 kmh 29.95 in1014.2 mb 0.00 in0.0 mm 0.00 in0.0 mm 0.00 in0.0 mm
06:50 PM 64.9°F18.3°C 50.0°F10.0°C 58% 4.8 mph S7.7 kmh S 9.6 mph15.4 kmh 29.95 in1014.2 mb 0.00 in0.0 mm 0.00 in0.0 mm 0.00 in0.0 mm
06:55 PM 64.6°F18.1°C 50.0°F10.0°C 58% 5.0 mph SW8.0 kmh SW 7.8 mph12.6 kmh 29.98 in1015.2 mb 0.00 in0.0 mm 0.00 in0.0 mm 0.00 in0.0 mm
07:00 PM 64.6°F18.1°C 50.0°F10.0°C 58% 4.9 mph SW7.9 kmh SW 7.8 mph12.6 kmh 29.98 in1015.2 mb 0.00 in0.0 mm 0.00 in0.0 mm 0.00 in0.0 mm
07:05 PM 64.2°F17.9°C 50.0°F10.0°C 59% 5.0 mph SW8.0 kmh SW 7.8 mph12.6 kmh 29.98 in1015.2 mb 0.00 in0.0 mm 0.00 in0.0 mm 0.00 in0.0 mm
07:10 PM 64.0°F17.8°C 50.0°F10.0°C 59% 5.4 mph SSW8.7 kmh SSW 8.9 mph14.3 kmh 29.98 in1015.2 mb 0.00 in0.0 mm 0.00 in0.0 mm 0.00 in0.0 mm
07:15 PM 63.7°F17.6°C 50.0°F10.0°C 59% 4.3 mph SSW6.9 kmh SSW 8.9 mph14.3 kmh 29.98 in1015.2 mb 0.00 in0.0 mm 0.00 in0.0 mm 0.00 in0.0 mm
07:20 PM 63.5°F17.5°C 50.0°F10.0°C 59% 3.1 mph SW5.0 kmh SW 7.2 mph11.6 kmh 29.98 in1015.2 mb 0.00 in0.0 mm 0.00 in0.0 mm 0.00 in0.0 mm
07:25 PM 63.5°F17.5°C 50.0°F10.0°C 59% 4.2 mph SW6.8 kmh SW 7.2 mph11.6 kmh 29.98 in1015.2 mb 0.00 in0.0 mm 0.00 in0.0 mm 0.00 in0.0 mm
07:30 PM 63.3°F17.4°C 48.2°F9.0°C 59% 3.6 mph SW5.8 kmh SW 7.2 mph11.6 kmh 29.98 in1015.2 mb 0.00 in0.0 mm 0.00 in0.0 mm 0.00 in0.0 mm
07:35 PM 63.1°F17.3°C 50.0°F10.0°C 60% 2.5 mph WSW4.0 kmh WSW 3.1 mph5.0 kmh 29.98 in1015.2 mb 0.00 in0.0 mm 0.00 in0.0 mm 0.00 in0.0 mm
07:40 PM 63.0°F17.2°C 50.0°F10.0°C 60% 3.0 mph SW4.8 kmh SW 4.9 mph7.9 kmh 29.98 in1015.2 mb 0.00 in0.0 mm 0.00 in0.0 mm 0.00 in0.0 mm
07:45 PM 63.0°F17.2°C 50.0°F10.0°C 60% 3.9 mph SW6.3 kmh SW 8.1 mph13.0 kmh 29.98 in1015.2 mb 0.00 in0.0 mm 0.00 in0.0 mm 0.00 in0.0 mm
07:50 PM 62.8°F17.1°C 48.2°F9.0°C 60% 4.6 mph SW7.4 kmh SW 8.1 mph13.0 kmh 29.98 in1015.2 mb 0.00 in0.0 mm 0.00 in0.0 mm 0.00 in0.0 mm
07:55 PM 62.6°F17.0°C 48.2°F9.0°C 60% 4.0 mph SW6.4 kmh SW 7.2 mph11.6 kmh 29.98 in1015.2 mb 0.00 in0.0 mm 0.00 in0.0 mm 0.00 in0.0 mm
08:00 PM 62.2°F16.8°C 48.2°F9.0°C 62% 3.6 mph SW5.8 kmh SW 7.2 mph11.6 kmh 29.98 in1015.2 mb 0.00 in0.0 mm 0.00 in0.0 mm 0.00 in0.0 mm
08:05 PM 62.1°F16.7°C 48.2°F9.0°C 62% 3.2 mph SW5.1 kmh SW 7.2 mph11.6 kmh 29.98 in1015.2 mb 0.00 in0.0 mm 0.00 in0.0 mm 0.00 in0.0 mm
08:10 PM 61.9°F16.6°C 48.2°F9.0°C 62% 2.9 mph S4.7 kmh S 4.9 mph7.9 kmh 29.98 in1015.2 mb 0.00 in0.0 mm 0.00 in0.0 mm 0.00 in0.0 mm
08:15 PM 61.5°F16.4°C 48.2°F9.0°C 63% 3.2 mph SSW5.1 kmh SSW 5.8 mph9.3 kmh 29.98 in1015.2 mb 0.00 in0.0 mm 0.00 in0.0 mm 0.00 in0.0 mm
08:20 PM 61.3°F16.3°C 48.2°F9.0°C 63% 3.5 mph SSW5.6 kmh SSW 5.8 mph9.3 kmh 29.98 in1015.2 mb 0.00 in0.0 mm 0.00 in0.0 mm 0.00 in0.0 mm
08:25 PM 61.3°F16.3°C 48.2°F9.0°C 63% 3.3 mph SSW5.3 kmh SSW 4.9 mph7.9 kmh 29.98 in1015.2 mb 0.00 in0.0 mm 0.00 in0.0 mm 0.00 in0.0 mm
08:30 PM 61.2°F16.2°C 50.0°F10.0°C 64% 2.8 mph SSW4.5 kmh SSW 4.3 mph6.9 kmh 29.98 in1015.2 mb 0.00 in0.0 mm 0.00 in0.0 mm 0.00 in0.0 mm
08:35 PM 61.0°F16.1°C 48.2°F9.0°C 64% 2.6 mph S4.2 kmh S 4.3 mph6.9 kmh 29.98 in1015.2 mb 0.00 in0.0 mm 0.00 in0.0 mm 0.00 in0.0 mm
08:40 PM 61.0°F16.1°C 48.2°F9.0°C 64% 3.0 mph S4.8 kmh S 7.2 mph11.6 kmh 29.98 in1015.2 mb 0.00 in0.0 mm 0.00 in0.0 mm 0.00 in0.0 mm
08:45 PM 61.0°F16.1°C 48.2°F9.0°C 64% 3.0 mph S4.8 kmh S 7.2 mph11.6 kmh 29.98 in1015.2 mb 0.00 in0.0 mm 0.00 in0.0 mm 0.00 in0.0 mm
08:50 PM 60.8°F16.0°C 48.2°F9.0°C 64% 2.7 mph S4.3 kmh S 3.6 mph5.8 kmh 29.98 in1015.2 mb 0.00 in0.0 mm 0.00 in0.0 mm 0.00 in0.0 mm
08:55 PM 60.8°F16.0°C 48.2°F9.0°C 64% 3.6 mph S5.8 kmh S 6.3 mph10.1 kmh 29.98 in1015.2 mb 0.00 in0.0 mm 0.00 in0.0 mm 0.00 in0.0 mm
09:00 PM 60.6°F15.9°C 50.0°F10.0°C 65% 3.9 mph S6.3 kmh S 6.3 mph10.1 kmh 29.98 in1015.2 mb 0.00 in0.0 mm 0.00 in0.0 mm 0.00 in0.0 mm
09:05 PM 60.4°F15.8°C 48.2°F9.0°C 65% 4.2 mph S6.8 kmh S 6.5 mph10.5 kmh 29.98 in1015.2 mb 0.00 in0.0 mm 0.00 in0.0 mm 0.00 in0.0 mm
09:10 PM 60.4°F15.8°C 48.2°F9.0°C 65% 4.7 mph S7.6 kmh S 7.2 mph11.6 kmh 29.98 in1015.2 mb 0.00 in0.0 mm 0.00 in0.0 mm 0.00 in0.0 mm
09:15 PM 60.3°F15.7°C 48.2°F9.0°C 65% 4.1 mph S6.6 kmh S 7.2 mph11.6 kmh 29.98 in1015.2 mb 0.00 in0.0 mm 0.00 in0.0 mm 0.00 in0.0 mm
09:20 PM 60.1°F15.6°C 48.2°F9.0°C 65% 4.1 mph S6.6 kmh S 5.4 mph8.7 kmh 29.98 in1015.2 mb 0.00 in0.0 mm 0.00 in0.0 mm 0.00 in0.0 mm
09:25 PM 60.1°F15.6°C 48.2°F9.0°C 65% 4.6 mph SSW7.4 kmh SSW 7.6 mph12.2 kmh 29.98 in1015.2 mb 0.00 in0.0 mm 0.00 in0.0 mm 0.00 in0.0 mm
09:30 PM 60.1°F15.6°C 48.2°F9.0°C 65% 5.0 mph SSW8.0 kmh SSW 8.1 mph13.0 kmh 29.98 in1015.2 mb 0.00 in0.0 mm 0.00 in0.0 mm 0.00 in0.0 mm
09:35 PM 60.1°F15.6°C 48.2°F9.0°C 66% 4.7 mph S7.6 kmh S 8.1 mph13.0 kmh 29.98 in1015.2 mb 0.00 in0.0 mm 0.00 in0.0 mm 0.00 in0.0 mm
09:40 PM 59.9°F15.5°C 48.2°F9.0°C 66% 4.3 mph SSW6.9 kmh SSW 5.6 mph9.0 kmh 29.98 in1015.2 mb 0.00 in0.0 mm 0.00 in0.0 mm 0.00 in0.0 mm
09:45 PM 59.9°F15.5°C 48.2°F9.0°C 66% 4.8 mph SSW7.7 kmh SSW 6.5 mph10.5 kmh 29.98 in1015.2 mb 0.00 in0.0 mm 0.00 in0.0 mm 0.00 in0.0 mm
09:50 PM 59.7°F15.4°C 48.2°F9.0°C 66% 5.6 mph SSW9.0 kmh SSW 9.4 mph15.1 kmh 29.98 in1015.2 mb 0.00 in0.0 mm 0.00 in0.0 mm 0.00 in0.0 mm
09:55 PM 59.7°F15.4°C 48.2°F9.0°C 67% 5.1 mph SW8.2 kmh SW 9.4 mph15.1 kmh 29.98 in1015.2 mb 0.00 in0.0 mm 0.00 in0.0 mm 0.00 in0.0 mm
10:00 PM 59.7°F15.4°C 48.2°F9.0°C 67% 4.4 mph SW7.1 kmh SW 8.5 mph13.7 kmh 29.98 in1015.2 mb 0.00 in0.0 mm 0.00 in0.0 mm 0.00 in0.0 mm
10:05 PM 59.7°F15.4°C 48.2°F9.0°C 67% 5.2 mph SSW8.4 kmh SSW 9.6 mph15.4 kmh 29.98 in1015.2 mb 0.00 in0.0 mm 0.00 in0.0 mm 0.00 in0.0 mm
10:10 PM 59.5°F15.3°C 48.2°F9.0°C 67% 4.9 mph S7.9 kmh S 9.6 mph15.4 kmh 29.98 in1015.2 mb 0.00 in0.0 mm 0.00 in0.0 mm 0.00 in0.0 mm
10:15 PM 59.5°F15.3°C 48.2°F9.0°C 67% 3.7 mph SSE6.0 kmh SSE 5.4 mph8.7 kmh 29.98 in1015.2 mb 0.00 in0.0 mm 0.00 in0.0 mm 0.00 in0.0 mm
10:20 PM 59.4°F15.2°C 48.2°F9.0°C 67% 3.2 mph S5.1 kmh S 6.3 mph10.1 kmh 29.98 in1015.2 mb 0.00 in0.0 mm 0.00 in0.0 mm 0.00 in0.0 mm
10:25 PM 59.4°F15.2°C 50.0°F10.0°C 68% 3.4 mph S5.5 kmh S 6.3 mph10.1 kmh 29.98 in1015.2 mb 0.00 in0.0 mm 0.00 in0.0 mm 0.00 in0.0 mm
10:30 PM 59.2°F15.1°C 48.2°F9.0°C 68% 3.4 mph S5.5 kmh S 4.9 mph7.9 kmh 29.98 in1015.2 mb 0.00 in0.0 mm 0.00 in0.0 mm 0.00 in0.0 mm
10:35 PM 59.0°F15.0°C 48.2°F9.0°C 68% 3.3 mph S5.3 kmh S 4.9 mph7.9 kmh 29.98 in1015.2 mb 0.00 in0.0 mm 0.00 in0.0 mm 0.00 in0.0 mm
10:40 PM 59.0°F15.0°C 48.2°F9.0°C 68% 3.4 mph S5.5 kmh S 4.5 mph7.2 kmh 29.98 in1015.2 mb 0.00 in0.0 mm 0.00 in0.0 mm 0.00 in0.0 mm
10:45 PM 58.8°F14.9°C 48.2°F9.0°C 68% 4.0 mph SSW6.4 kmh SSW 7.2 mph11.6 kmh 29.98 in1015.2 mb 0.00 in0.0 mm 0.00 in0.0 mm 0.00 in0.0 mm
10:50 PM 58.6°F14.8°C 48.2°F9.0°C 69% 3.8 mph S6.1 kmh S 7.2 mph11.6 kmh 29.98 in1015.2 mb 0.00 in0.0 mm 0.00 in0.0 mm 0.00 in0.0 mm
10:55 PM 58.6°F14.8°C 48.2°F9.0°C 69% 3.5 mph S5.6 kmh S 7.2 mph11.6 kmh 29.98 in1015.2 mb 0.00 in0.0 mm 0.00 in0.0 mm 0.00 in0.0 mm
11:00 PM 58.6°F14.8°C 48.2°F9.0°C 69% 3.8 mph SSW6.1 kmh SSW 7.2 mph11.6 kmh 29.98 in1015.2 mb 0.00 in0.0 mm 0.00 in0.0 mm 0.00 in0.0 mm
11:05 PM 58.5°F14.7°C 48.2°F9.0°C 69% 4.3 mph S6.9 kmh S 7.4 mph11.9 kmh 29.98 in1015.2 mb 0.00 in0.0 mm 0.00 in0.0 mm 0.00 in0.0 mm
11:10 PM 58.5°F14.7°C 48.2°F9.0°C 69% 4.3 mph S6.9 kmh S 7.4 mph11.9 kmh 29.98 in1015.2 mb 0.00 in0.0 mm 0.00 in0.0 mm 0.00 in0.0 mm
11:15 PM 58.3°F14.6°C 48.2°F9.0°C 70% 3.2 mph SSW5.1 kmh SSW 6.0 mph9.7 kmh 29.98 in1015.2 mb 0.00 in0.0 mm 0.00 in0.0 mm 0.00 in0.0 mm
11:20 PM 58.1°F14.5°C 48.2°F9.0°C 70% 3.0 mph S4.8 kmh S 4.0 mph6.4 kmh 29.98 in1015.2 mb 0.00 in0.0 mm 0.00 in0.0 mm 0.00 in0.0 mm
11:25 PM 58.1°F14.5°C 48.2°F9.0°C 70% 2.6 mph SSW4.2 kmh SSW 3.6 mph5.8 kmh 29.98 in1015.2 mb 0.00 in0.0 mm 0.00 in0.0 mm 0.00 in0.0 mm
11:30 PM 57.9°F14.4°C 48.2°F9.0°C 70% 2.3 mph S3.7 kmh S 3.8 mph6.1 kmh 29.98 in1015.2 mb 0.00 in0.0 mm 0.00 in0.0 mm 0.00 in0.0 mm
11:35 PM 57.7°F14.3°C 48.2°F9.0°C 71% 2.7 mph S4.3 kmh S 5.6 mph9.0 kmh 29.98 in1015.2 mb 0.00 in0.0 mm 0.00 in0.0 mm 0.00 in0.0 mm
11:40 PM 57.7°F14.3°C 48.2°F9.0°C 71% 2.3 mph SSE3.7 kmh SSE 5.6 mph9.0 kmh 29.98 in1015.2 mb 0.00 in0.0 mm 0.00 in0.0 mm 0.00 in0.0 mm
11:45 PM 57.7°F14.3°C 48.2°F9.0°C 71% 2.1 mph S3.4 kmh S 3.8 mph6.1 kmh 29.98 in1015.2 mb 0.00 in0.0 mm 0.00 in0.0 mm 0.00 in0.0 mm
11:50 PM 57.6°F14.2°C 48.2°F9.0°C 71% 2.8 mph S4.5 kmh S 4.7 mph7.6 kmh 29.98 in1015.2 mb 0.00 in0.0 mm 0.00 in0.0 mm 0.00 in0.0 mm
11:55 PM 57.6°F14.2°C 48.2°F9.0°C 71% 3.0 mph S4.8 kmh S 4.7 mph7.6 kmh 29.98 in1015.2 mb 0.00 in0.0 mm 0.00 in0.0 mm 0.00 in0.0 mm